createdAt,value
2019-01-08T00:01:40.692Z,74.26
2019-01-08T00:04:07.934Z,73.90
2019-01-08T00:06:35.180Z,74.03
2019-01-08T00:09:02.839Z,74.59
2019-01-08T00:11:30.078Z,74.37
2019-01-08T00:13:57.275Z,75.66
2019-01-08T00:16:24.515Z,77.74
2019-01-08T00:18:51.772Z,74.17
2019-01-08T00:21:19.024Z,74.23
2019-01-08T00:23:46.262Z,74.83
2019-01-08T00:26:13.595Z,75.65
2019-01-08T00:28:43.369Z,75.83
2019-01-08T00:31:09.968Z,74.24
2019-01-08T00:33:37.320Z,76.50
2019-01-08T00:36:04.593Z,74.71
2019-01-08T00:38:31.810Z,73.63
2019-01-08T00:40:59.065Z,75.87
2019-01-08T00:43:26.284Z,76.08
2019-01-08T00:45:53.567Z,73.64
2019-01-08T00:48:20.811Z,73.64
2019-01-08T00:50:48.012Z,74.52
2019-01-08T00:53:15.278Z,73.72
2019-01-08T00:55:42.535Z,75.78
2019-01-08T00:58:09.759Z,74.22
2019-01-08T01:00:37.016Z,75.54
2019-01-08T01:03:04.276Z,75.01
2019-01-08T01:05:31.483Z,76.17
2019-01-08T01:07:58.691Z,75.69
2019-01-08T01:10:25.956Z,76.72
2019-01-08T01:12:53.186Z,77.59
2019-01-08T01:15:20.419Z,77.51
2019-01-08T01:17:47.663Z,77.97
2019-01-08T01:20:14.919Z,78.00
2019-01-08T01:22:42.165Z,76.39
2019-01-08T01:25:09.682Z,77.01
2019-01-08T01:27:36.943Z,75.66
2019-01-08T01:30:04.508Z,75.76
2019-01-08T01:32:31.731Z,77.13
2019-01-08T01:34:59.012Z,76.85
2019-01-08T01:37:26.212Z,76.37
2019-01-08T01:39:53.422Z,75.81
2019-01-08T01:42:20.680Z,76.69
2019-01-08T01:44:47.904Z,75.11
2019-01-08T01:47:15.135Z,73.42
2019-01-08T01:49:42.366Z,73.54
2019-01-08T01:52:09.605Z,73.88
2019-01-08T01:54:36.812Z,73.34
2019-01-08T01:57:04.072Z,74.05
2019-01-08T01:59:31.311Z,72.75
2019-01-08T02:01:58.527Z,72.93
2019-01-08T02:04:25.811Z,73.86
2019-01-08T02:06:53.060Z,73.26
2019-01-08T02:09:20.284Z,72.64
2019-01-08T02:11:47.530Z,75.75
2019-01-08T02:14:14.798Z,72.87
2019-01-08T02:16:42.012Z,73.31
2019-01-08T02:19:09.242Z,73.86
2019-01-08T02:21:36.492Z,73.24
2019-01-08T02:24:03.724Z,72.67
2019-01-08T02:26:30.945Z,72.53
2019-01-08T02:28:58.276Z,73.50
2019-01-08T02:31:25.492Z,72.04
2019-01-08T02:33:52.923Z,71.38
2019-01-08T02:36:20.161Z,70.99
2019-01-08T02:38:47.386Z,70.54
2019-01-08T02:41:14.746Z,70.49
2019-01-08T02:43:41.986Z,71.10
2019-01-08T02:46:09.362Z,71.28
2019-01-08T02:48:36.638Z,73.25
2019-01-08T02:51:03.899Z,71.54
2019-01-08T02:53:31.136Z,71.23
2019-01-08T02:55:58.396Z,71.46
2019-01-08T02:58:25.623Z,71.65
2019-01-08T03:00:52.835Z,72.31
2019-01-08T03:03:20.064Z,72.37
2019-01-08T03:05:47.291Z,73.20
2019-01-08T03:08:14.513Z,73.39
2019-01-08T03:10:41.788Z,72.19
2019-01-08T03:13:09.013Z,72.75
2019-01-08T03:15:36.208Z,72.92
2019-01-08T03:18:03.465Z,72.72
2019-01-08T03:20:30.673Z,72.59
2019-01-08T03:22:58.007Z,72.80
2019-01-08T03:25:25.265Z,72.25
2019-01-08T03:27:52.517Z,72.74
2019-01-08T03:30:19.779Z,72.29
2019-01-08T03:32:47.030Z,72.94
2019-01-08T03:35:14.256Z,72.05
2019-01-08T03:37:41.513Z,72.00
2019-01-08T03:40:08.767Z,72.08
2019-01-08T03:42:35.987Z,71.42
2019-01-08T03:45:03.368Z,71.85
2019-01-08T03:47:30.577Z,73.98
2019-01-08T03:49:57.805Z,71.64
2019-01-08T03:52:25.088Z,71.18
2019-01-08T03:54:52.309Z,71.62
2019-01-08T03:57:19.510Z,72.06
2019-01-08T03:59:46.764Z,73.52
2019-01-08T04:02:14.017Z,73.39
2019-01-08T04:04:41.252Z,73.81
2019-01-08T04:07:08.466Z,72.71
2019-01-08T04:09:35.800Z,72.76
2019-01-08T04:12:03.073Z,72.56
2019-01-08T04:14:30.285Z,71.97
2019-01-08T04:16:57.500Z,71.86
2019-01-08T04:19:24.755Z,72.60
2019-01-08T04:21:51.966Z,72.92
2019-01-08T04:24:19.217Z,74.41
2019-01-08T04:26:46.496Z,73.14
2019-01-08T04:29:13.714Z,73.70
2019-01-08T04:31:40.981Z,73.37
2019-01-08T04:34:08.227Z,73.90
2019-01-08T04:36:35.449Z,73.18
2019-01-08T04:39:03.902Z,72.93
2019-01-08T04:41:31.155Z,74.97
2019-01-08T04:43:58.378Z,72.13
2019-01-08T04:46:25.616Z,71.99
2019-01-08T04:48:53.008Z,71.59
2019-01-08T04:51:20.304Z,72.99
2019-01-08T04:53:47.511Z,71.99
2019-01-08T04:56:14.750Z,72.33
2019-01-08T04:58:42.043Z,71.95
2019-01-08T05:01:09.267Z,72.02
2019-01-08T05:03:36.460Z,72.49
2019-01-08T05:06:03.706Z,72.93
2019-01-08T05:08:30.924Z,72.08
2019-01-08T05:10:58.174Z,72.33
2019-01-08T05:13:25.422Z,72.11
2019-01-08T05:15:52.624Z,72.24
2019-01-08T05:18:19.907Z,72.30
2019-01-08T05:20:47.130Z,72.25
2019-01-08T05:23:14.427Z,71.43
2019-01-08T05:25:41.672Z,71.40
2019-01-08T05:28:08.889Z,72.34
2019-01-08T05:30:36.079Z,71.82
2019-01-08T05:33:03.375Z,72.70
2019-01-08T05:35:30.592Z,72.24
2019-01-08T05:37:57.821Z,72.02
2019-01-08T05:40:25.062Z,72.57
2019-01-08T05:42:52.276Z,73.37
2019-01-08T05:45:19.513Z,74.76
2019-01-08T05:47:46.733Z,74.68
2019-01-08T05:50:13.945Z,74.70
2019-01-08T05:52:41.233Z,74.57
2019-01-08T05:55:08.478Z,74.99
2019-01-08T05:57:35.690Z,75.28
2019-01-08T06:00:03.266Z,74.34
2019-01-08T06:02:30.538Z,75.35
2019-01-08T06:04:57.762Z,75.24
2019-01-08T06:07:25.060Z,78.02
2019-01-08T06:09:52.332Z,75.79
2019-01-08T06:12:19.652Z,77.59
2019-01-08T06:14:46.875Z,77.24
2019-01-08T06:17:14.181Z,77.21
2019-01-08T06:19:41.725Z,79.41
2019-01-08T06:22:08.955Z,78.31
2019-01-08T06:24:36.178Z,78.86
2019-01-08T06:27:03.431Z,79.40
2019-01-08T06:29:30.659Z,79.76
2019-01-08T06:31:57.893Z,79.60
2019-01-08T06:34:25.182Z,79.67
2019-01-08T06:36:52.417Z,79.78
2019-01-08T06:39:19.677Z,80.23
2019-01-08T06:41:46.882Z,79.99
2019-01-08T06:44:14.115Z,79.93
2019-01-08T06:46:43.147Z,79.82
2019-01-08T06:49:10.520Z,79.84
2019-01-08T06:51:37.863Z,80.02
2019-01-08T06:54:05.140Z,80.48
2019-01-08T06:56:32.352Z,80.67
2019-01-08T06:58:59.651Z,80.99
2019-01-08T07:01:29.413Z,81.38
2019-01-08T07:03:56.618Z,81.12
2019-01-08T07:06:23.859Z,81.18
2019-01-08T07:08:51.075Z,81.34
2019-01-08T07:11:18.394Z,81.28
2019-01-08T07:13:45.634Z,80.56
2019-01-08T07:16:12.839Z,80.49
2019-01-08T07:18:40.180Z,80.36
2019-01-08T07:21:07.395Z,80.35
2019-01-08T07:23:34.648Z,80.65
2019-01-08T07:26:01.887Z,80.42
2019-01-08T07:28:29.412Z,80.55
2019-01-08T07:30:56.875Z,80.84
2019-01-08T07:33:24.087Z,80.98
2019-01-08T07:35:51.319Z,80.88
2019-01-08T07:38:18.583Z,80.81
2019-01-08T07:40:45.800Z,81.40
2019-01-08T07:43:13.069Z,81.40
2019-01-08T07:45:40.328Z,81.46
2019-01-08T07:48:07.545Z,81.59
2019-01-08T07:50:34.820Z,81.69
2019-01-08T07:53:02.055Z,81.31
2019-01-08T07:55:29.298Z,80.57
2019-01-08T07:57:56.547Z,80.56
2019-01-08T08:00:23.741Z,80.86
2019-01-08T08:02:51.063Z,81.39
2019-01-08T08:05:18.318Z,82.02
2019-01-08T08:07:45.559Z,81.75
2019-01-08T08:10:13.319Z,81.22
2019-01-08T08:12:40.539Z,80.80
2019-01-08T08:15:07.991Z,80.69
2019-01-08T08:17:35.265Z,79.96
2019-01-08T08:20:03.862Z,79.77
2019-01-08T08:22:31.097Z,78.87
2019-01-08T08:24:58.339Z,78.39
2019-01-08T08:27:25.624Z,78.33
2019-01-08T08:29:52.867Z,78.36
2019-01-08T08:32:20.142Z,78.23
2019-01-08T08:34:47.439Z,78.55
2019-01-08T08:37:14.702Z,79.43
2019-01-08T08:39:41.910Z,79.65
2019-01-08T08:42:10.335Z,79.42
2019-01-08T08:44:37.577Z,79.08
2019-01-08T08:47:04.796Z,79.05
2019-01-08T08:49:32.019Z,78.46
2019-01-08T08:51:59.259Z,78.86
2019-01-08T08:54:26.524Z,78.69
2019-01-08T08:56:53.757Z,79.37
2019-01-08T08:59:20.995Z,79.45
2019-01-08T09:01:48.230Z,79.25
2019-01-08T09:04:15.488Z,78.99
2019-01-08T09:06:42.724Z,78.33
2019-01-08T09:09:10.044Z,78.63
2019-01-08T09:11:37.300Z,78.96
2019-01-08T09:14:04.517Z,79.38
2019-01-08T09:16:31.719Z,78.73
2019-01-08T09:18:59.125Z,77.94
2019-01-08T09:21:26.382Z,77.29
2019-01-08T09:23:53.680Z,76.94
2019-01-08T09:26:20.917Z,75.30
2019-01-08T09:28:48.172Z,74.05
2019-01-08T09:31:15.854Z,73.74
2019-01-08T09:33:43.116Z,73.67
2019-01-08T09:36:10.379Z,73.49
2019-01-08T09:38:37.629Z,73.47
2019-01-08T09:41:04.954Z,71.25
2019-01-08T09:43:32.208Z,71.16
2019-01-08T09:45:59.423Z,71.47
2019-01-08T09:48:26.707Z,71.72
2019-01-08T09:50:53.955Z,71.94
2019-01-08T09:53:21.172Z,71.86
2019-01-08T09:55:48.396Z,71.70
2019-01-08T09:58:15.662Z,71.59
2019-01-08T10:00:42.890Z,70.90
2019-01-08T10:03:10.206Z,70.54
2019-01-08T10:05:37.454Z,70.12
2019-01-08T10:08:04.672Z,69.12
2019-01-08T10:10:31.925Z,68.75
2019-01-08T10:12:59.223Z,68.33
2019-01-08T10:15:26.519Z,68.50
2019-01-08T10:17:53.744Z,68.56
2019-01-08T10:20:20.987Z,70.24
2019-01-08T10:22:48.348Z,70.26
2019-01-08T10:25:15.582Z,70.17
2019-01-08T10:27:42.843Z,69.85
2019-01-08T10:30:10.247Z,69.60
2019-01-08T10:32:37.454Z,69.40
2019-01-08T10:35:05.081Z,69.71
2019-01-08T10:37:32.424Z,68.19
2019-01-08T10:40:01.506Z,67.58
2019-01-08T10:42:28.807Z,67.41
2019-01-08T10:44:56.099Z,69.47
2019-01-08T10:47:23.318Z,72.00
2019-01-08T10:49:50.565Z,72.62
2019-01-08T10:52:18.037Z,71.87
2019-01-08T10:54:45.334Z,70.80
2019-01-08T10:57:12.587Z,70.40
2019-01-08T10:59:39.985Z,72.36
2019-01-08T11:02:07.253Z,73.54
2019-01-08T11:04:34.571Z,73.36
2019-01-08T11:07:01.792Z,71.59
2019-01-08T11:09:29.269Z,70.59
2019-01-08T11:11:56.836Z,69.61
2019-01-08T11:14:24.076Z,68.78
2019-01-08T11:16:53.366Z,68.12
2019-01-08T11:19:20.793Z,67.21
2019-01-08T11:21:48.276Z,67.59
2019-01-08T11:24:15.559Z,68.79
2019-01-08T11:26:42.834Z,71.63
2019-01-08T11:29:10.019Z,73.17
2019-01-08T11:31:37.269Z,72.83
2019-01-08T11:34:04.493Z,72.92
2019-01-08T11:36:31.720Z,72.67
2019-01-08T11:38:58.974Z,73.64
2019-01-08T11:41:26.212Z,72.52
2019-01-08T11:43:53.415Z,71.74
2019-01-08T11:46:20.676Z,70.62
2019-01-08T11:48:47.905Z,70.02
2019-01-08T11:51:15.280Z,68.79
2019-01-08T11:53:42.555Z,68.91
2019-01-08T11:56:09.756Z,68.44
2019-01-08T11:58:37.017Z,65.99
2019-01-08T12:01:04.241Z,65.61
2019-01-08T12:03:31.496Z,66.88
2019-01-08T12:05:58.713Z,67.07
2019-01-08T12:08:25.939Z,67.47
2019-01-08T12:10:53.348Z,67.53
2019-01-08T12:13:20.541Z,67.51
2019-01-08T12:15:47.976Z,68.02
2019-01-08T12:18:16.246Z,67.42
2019-01-08T12:20:43.562Z,67.77
2019-01-08T12:23:10.882Z,68.67
2019-01-08T12:25:38.176Z,71.28
2019-01-08T12:28:05.444Z,73.14
2019-01-08T12:30:32.746Z,72.84
2019-01-08T12:32:59.971Z,72.71
2019-01-08T12:35:27.224Z,69.58
2019-01-08T12:37:54.524Z,68.11
2019-01-08T12:40:21.773Z,69.75
2019-01-08T12:42:49.201Z,68.85
2019-01-08T12:45:16.430Z,68.48
2019-01-08T12:47:43.919Z,68.29
2019-01-08T12:50:11.179Z,67.56
2019-01-08T12:52:38.457Z,67.18
2019-01-08T12:55:05.751Z,67.35
2019-01-08T12:57:33.101Z,66.39
2019-01-08T13:00:00.353Z,67.12
2019-01-08T13:02:27.731Z,67.45
2019-01-08T13:04:54.998Z,66.44
2019-01-08T13:07:22.295Z,65.21
2019-01-08T13:09:49.555Z,65.29
2019-01-08T13:12:16.780Z,65.26
2019-01-08T13:14:44.032Z,65.80
2019-01-08T13:17:11.879Z,66.83
2019-01-08T13:19:39.462Z,66.54
2019-01-08T13:22:06.817Z,66.76
2019-01-08T13:24:34.062Z,67.53
2019-01-08T13:27:01.381Z,67.85
2019-01-08T13:29:28.664Z,64.90
2019-01-08T13:31:55.887Z,65.53
2019-01-08T13:34:23.192Z,66.26
2019-01-08T13:36:50.415Z,65.87
2019-01-08T13:39:17.649Z,67.00
2019-01-08T13:41:44.924Z,69.05
2019-01-08T13:44:13.832Z,69.21
2019-01-08T13:46:41.140Z,69.41
2019-01-08T13:49:10.958Z,68.31
2019-01-08T13:51:38.313Z,67.36
2019-01-08T13:54:05.527Z,68.34
2019-01-08T13:56:32.756Z,68.12
2019-01-08T13:59:05.193Z,67.56
2019-01-08T14:01:32.412Z,66.99
2019-01-08T14:03:59.652Z,67.47
2019-01-08T14:06:26.891Z,67.26
2019-01-08T14:08:54.124Z,67.43
2019-01-08T14:11:21.345Z,69.24
2019-01-08T14:13:48.875Z,66.57
2019-01-08T14:16:16.163Z,68.37
2019-01-08T14:18:43.427Z,67.73
2019-01-08T14:21:10.727Z,65.92
2019-01-08T14:23:38.025Z,65.94
2019-01-08T14:26:05.298Z,65.14
2019-01-08T14:28:32.559Z,65.07
2019-01-08T14:31:00.110Z,67.29
2019-01-08T14:33:27.327Z,66.69
2019-01-08T14:35:54.562Z,68.00
2019-01-08T14:38:21.811Z,68.21
2019-01-08T14:40:49.178Z,69.16
2019-01-08T14:43:16.394Z,68.01
2019-01-08T14:45:43.633Z,67.89
2019-01-08T14:48:10.892Z,67.49
2019-01-08T14:50:38.255Z,66.98
2019-01-08T14:53:05.463Z,67.41
2019-01-08T14:55:32.691Z,67.97
2019-01-08T14:57:59.939Z,68.16
2019-01-08T15:00:27.171Z,67.58
2019-01-08T15:02:54.418Z,67.52
2019-01-08T15:05:21.782Z,67.75
2019-01-08T15:07:49.040Z,67.88
2019-01-08T15:10:16.367Z,67.68
2019-01-08T15:12:43.686Z,68.91
2019-01-08T15:15:12.853Z,68.51
2019-01-08T15:17:40.157Z,67.44
2019-01-08T15:20:07.524Z,69.00
2019-01-08T15:22:34.765Z,67.29
2019-01-08T15:25:02.061Z,67.73
2019-01-08T15:27:29.424Z,68.58
2019-01-08T15:29:56.660Z,69.39
2019-01-08T15:32:23.944Z,70.20
2019-01-08T15:34:51.185Z,70.48
2019-01-08T15:37:18.492Z,70.17
2019-01-08T15:39:45.788Z,70.55
2019-01-08T15:42:13.076Z,70.38
2019-01-08T15:44:40.323Z,68.79
2019-01-08T15:47:07.901Z,67.42
2019-01-08T15:49:35.114Z,67.58
2019-01-08T15:52:02.526Z,69.16
2019-01-08T15:54:29.882Z,68.91
2019-01-08T15:56:57.308Z,68.64
2019-01-08T15:59:24.593Z,69.39
2019-01-08T16:01:51.810Z,69.48
2019-01-08T16:04:19.066Z,69.87
2019-01-08T16:06:46.381Z,68.38
2019-01-08T16:09:13.589Z,68.28
2019-01-08T16:11:40.856Z,68.06
2019-01-08T16:14:08.112Z,67.90
2019-01-08T16:16:35.345Z,68.80
2019-01-08T16:19:02.722Z,68.49
2019-01-08T16:21:29.950Z,68.69
2019-01-08T16:23:57.157Z,68.89
2019-01-08T16:26:24.472Z,68.78
2019-01-08T16:28:51.781Z,69.33
2019-01-08T16:31:19.457Z,69.77
2019-01-08T16:33:46.680Z,69.39
2019-01-08T16:36:13.956Z,69.67
2019-01-08T16:38:41.167Z,68.24
2019-01-08T16:41:08.377Z,68.46
2019-01-08T16:43:35.626Z,68.50
2019-01-08T16:46:02.858Z,68.76
2019-01-08T16:48:30.077Z,68.36
2019-01-08T16:50:57.367Z,68.93
2019-01-08T16:53:24.631Z,69.92
2019-01-08T16:55:51.871Z,69.59
2019-01-08T16:58:19.137Z,68.69
2019-01-08T17:00:46.603Z,68.26
2019-01-08T17:03:13.991Z,67.93
2019-01-08T17:05:43.630Z,67.62
2019-01-08T17:08:10.852Z,67.64
2019-01-08T17:10:38.141Z,67.27
2019-01-08T17:13:06.730Z,67.26
2019-01-08T17:15:34.071Z,66.74
2019-01-08T17:18:01.356Z,66.54
2019-01-08T17:20:28.595Z,66.69
2019-01-08T17:22:56.028Z,67.76
2019-01-08T17:25:23.359Z,68.99
2019-01-08T17:27:50.656Z,69.61
2019-01-08T17:30:20.162Z,69.46
2019-01-08T17:32:47.495Z,69.11
2019-01-08T17:35:14.906Z,69.18
2019-01-08T17:37:42.240Z,69.20
2019-01-08T17:40:09.522Z,69.39
2019-01-08T17:42:36.990Z,68.40
2019-01-08T17:45:05.526Z,68.98
2019-01-08T17:47:33.042Z,68.76
2019-01-08T17:50:00.294Z,68.35
2019-01-08T17:52:27.845Z,68.88
2019-01-08T17:54:55.057Z,69.81
2019-01-08T17:57:22.495Z,70.04
2019-01-08T17:59:49.839Z,70.52
2019-01-08T18:02:18.434Z,71.27
2019-01-08T18:04:45.726Z,71.97
2019-01-08T18:07:12.945Z,72.40
2019-01-08T18:09:40.187Z,71.44
2019-01-08T18:12:07.395Z,68.43
2019-01-08T18:14:35.704Z,68.22
2019-01-08T18:17:03.514Z,68.81
2019-01-08T18:19:31.062Z,69.05
2019-01-08T18:21:58.539Z,69.22
2019-01-08T18:24:25.895Z,69.64
2019-01-08T18:26:53.067Z,70.00
2019-01-08T18:29:20.718Z,70.20
2019-01-08T18:31:48.181Z,70.10
2019-01-08T18:34:15.458Z,71.27
2019-01-08T18:36:42.695Z,73.33
2019-01-08T18:39:09.920Z,74.40
2019-01-08T18:41:37.211Z,74.75
2019-01-08T18:44:04.434Z,74.96
2019-01-08T18:46:31.851Z,74.46
2019-01-08T18:48:59.661Z,75.87
2019-01-08T18:51:26.877Z,75.16
2019-01-08T18:53:55.238Z,74.63
2019-01-08T18:56:22.470Z,74.92
2019-01-08T18:58:49.908Z,75.15
2019-01-08T19:01:17.252Z,75.28
2019-01-08T19:03:44.480Z,74.86
2019-01-08T19:06:11.675Z,74.20
2019-01-08T19:09:15.065Z,73.76
2019-01-08T19:11:42.280Z,73.96
2019-01-08T19:14:10.088Z,73.18
2019-01-08T19:16:37.323Z,72.70
2019-01-08T19:19:04.530Z,72.77
2019-01-08T19:21:31.892Z,72.49
2019-01-08T19:23:59.167Z,72.88
2019-01-08T19:26:26.649Z,72.57
2019-01-08T19:28:54.118Z,72.15
2019-01-08T19:31:21.363Z,73.24
2019-01-08T19:33:48.573Z,75.23
2019-01-08T19:36:15.916Z,75.13
2019-01-08T19:38:43.209Z,75.90
2019-01-08T19:41:10.930Z,75.79
2019-01-08T19:43:38.244Z,74.28
2019-01-08T19:46:05.483Z,74.37
2019-01-08T19:48:32.752Z,75.01
2019-01-08T19:50:59.980Z,75.38
2019-01-08T19:53:27.255Z,75.84
2019-01-08T19:55:54.512Z,75.49
2019-01-08T19:58:21.812Z,74.92
2019-01-08T20:00:49.109Z,76.27
2019-01-08T20:03:16.376Z,77.21
2019-01-08T20:05:43.596Z,77.21
2019-01-08T20:08:11.068Z,76.48
2019-01-08T20:10:38.261Z,76.52
2019-01-08T20:13:05.553Z,76.45
2019-01-08T20:15:32.820Z,76.13
2019-01-08T20:18:00.043Z,75.45
2019-01-08T20:20:27.395Z,74.99
2019-01-08T20:22:54.656Z,74.24
2019-01-08T20:25:21.881Z,73.87
2019-01-08T20:27:50.140Z,73.17
2019-01-08T20:30:17.558Z,73.03
2019-01-08T20:32:44.910Z,72.27
2019-01-08T20:35:12.130Z,73.09
2019-01-08T20:37:39.862Z,74.23
2019-01-08T20:40:07.189Z,74.22
2019-01-08T20:42:34.402Z,74.46
2019-01-08T20:45:01.696Z,74.62
2019-01-08T20:47:28.900Z,72.01
2019-01-08T20:49:56.116Z,68.98
2019-01-08T20:52:23.438Z,70.32
2019-01-08T20:54:50.638Z,72.58
2019-01-08T20:57:17.879Z,73.98
2019-01-08T20:59:45.124Z,74.32
2019-01-08T21:02:12.375Z,74.68
2019-01-08T21:04:39.600Z,74.49
2019-01-08T21:07:06.847Z,71.51
2019-01-08T21:09:34.063Z,70.45
2019-01-08T21:12:01.335Z,71.67
2019-01-08T21:14:28.621Z,73.63
2019-01-08T21:16:55.851Z,74.48
2019-01-08T21:19:23.068Z,75.21
2019-01-08T21:21:50.348Z,77.14
2019-01-08T21:24:17.603Z,77.06
2019-01-08T21:26:44.815Z,76.19
2019-01-08T21:29:12.162Z,73.43
2019-01-08T21:31:39.484Z,73.85
2019-01-08T21:34:06.707Z,74.53
2019-01-08T21:36:33.958Z,75.29
2019-01-08T21:39:01.176Z,74.66
2019-01-08T21:41:28.412Z,73.48
2019-01-08T21:43:55.644Z,73.45
2019-01-08T21:46:22.866Z,74.89
2019-01-08T21:48:50.292Z,75.42
2019-01-08T21:51:17.593Z,75.81
2019-01-08T21:53:44.811Z,75.60
2019-01-08T21:56:12.058Z,74.44
2019-01-08T21:58:39.275Z,73.33
2019-01-08T22:01:06.510Z,72.69
2019-01-08T22:03:33.903Z,72.60
2019-01-08T22:06:01.189Z,73.05
2019-01-08T22:08:28.595Z,73.18
2019-01-08T22:10:55.824Z,73.50
2019-01-08T22:13:23.017Z,73.40
2019-01-08T22:15:50.277Z,72.44
2019-01-08T22:18:17.880Z,71.69
2019-01-08T22:20:45.076Z,71.79
2019-01-08T22:23:12.322Z,72.06
2019-01-08T22:25:39.559Z,72.14
2019-01-08T22:28:06.796Z,72.48
2019-01-08T22:30:34.069Z,71.66
2019-01-08T22:33:02.454Z,71.35
2019-01-08T22:35:29.707Z,69.82
2019-01-08T22:37:56.935Z,70.98
2019-01-08T22:40:24.178Z,72.46
2019-01-08T22:42:51.573Z,72.67
2019-01-08T22:45:19.044Z,72.37
2019-01-08T22:47:46.323Z,72.52
2019-01-08T22:50:13.902Z,72.20
2019-01-08T22:52:59.548Z,71.62
2019-01-08T22:55:38.229Z,71.75
2019-01-08T22:58:21.753Z,71.62
2019-01-08T23:04:21.707Z,71.96
2019-01-08T23:06:49.401Z,72.36
2019-01-08T23:09:17.164Z,70.99
2019-01-08T23:11:44.789Z,69.88
2019-01-08T23:14:12.369Z,70.26
2019-01-08T23:16:39.956Z,69.27
2019-01-08T23:19:07.870Z,70.89
2019-01-08T23:21:35.442Z,71.20
2019-01-08T23:24:02.698Z,69.25
2019-01-08T23:26:29.926Z,67.80
2019-01-08T23:28:57.153Z,69.18
2019-01-08T23:31:24.463Z,70.22
2019-01-08T23:33:51.732Z,70.97
2019-01-08T23:36:18.954Z,71.40
2019-01-08T23:38:46.329Z,70.72
2019-01-08T23:41:13.632Z,69.79
2019-01-08T23:43:40.897Z,72.03
2019-01-08T23:46:08.105Z,73.72
2019-01-08T23:48:35.318Z,72.83
2019-01-08T23:51:02.570Z,72.67
2019-01-08T23:53:31.971Z,73.25
2019-01-08T23:56:02.485Z,73.51
2019-01-08T23:58:29.709Z,73.08
